createdAt,value
2022-08-09T00:02:29.845Z,99.90
2022-08-09T00:07:44.864Z,99.90
2022-08-09T00:18:05.399Z,99.90
2022-08-09T00:23:55.966Z,99.90
2022-08-09T00:28:37.416Z,99.90
2022-08-09T00:33:50.449Z,99.90
2022-08-09T00:38:54.510Z,99.90
2022-08-09T00:44:16.791Z,99.90
2022-08-09T00:49:20.673Z,99.90
2022-08-09T00:54:31.406Z,99.90
2022-08-09T00:59:47.147Z,99.90
2022-08-09T01:04:55.364Z,99.90
2022-08-09T01:09:59.245Z,99.90
2022-08-09T01:15:21.969Z,99.90
2022-08-09T01:20:26.222Z,99.90
2022-08-09T01:25:32.207Z,99.90
2022-08-09T01:30:52.093Z,99.90
2022-08-09T01:36:02.572Z,99.90
2022-08-09T01:41:15.933Z,99.90
2022-08-09T01:46:25.143Z,99.90
2022-08-09T01:51:44.547Z,99.90
2022-08-09T01:56:56.858Z,99.90
2022-08-09T02:02:01.297Z,99.90
2022-08-09T02:07:18.474Z,99.90
2022-08-09T02:12:34.972Z,99.90
2022-08-09T02:18:09.589Z,99.90
2022-08-09T02:23:02.084Z,99.90
2022-08-09T02:28:09.546Z,99.90
2022-08-09T02:33:14.198Z,99.90
2022-08-09T02:38:22.137Z,99.90
2022-08-09T02:43:53.835Z,99.90
2022-08-09T02:48:56.755Z,99.90
2022-08-09T02:54:01.000Z,99.90
2022-08-09T02:59:04.974Z,99.90
2022-08-09T03:04:16.727Z,99.90
2022-08-09T03:09:21.386Z,99.90
2022-08-09T03:14:28.335Z,99.90
2022-08-09T03:19:58.471Z,99.90
2022-08-09T03:25:16.166Z,99.90
2022-08-09T03:30:29.663Z,99.90
2022-08-09T03:35:44.397Z,99.90
2022-08-09T03:41:00.519Z,99.90
2022-08-09T03:46:19.961Z,99.90
2022-08-09T03:51:56.727Z,99.90
2022-08-09T03:56:52.471Z,99.90
2022-08-09T04:01:55.598Z,99.90
2022-08-09T04:06:59.183Z,99.90
2022-08-09T04:12:02.507Z,99.90
2022-08-09T04:17:13.636Z,99.90
2022-08-09T04:22:16.511Z,99.90
2022-08-09T04:27:21.977Z,99.90
2022-08-09T04:32:33.646Z,99.90
2022-08-09T04:37:42.068Z,99.90
2022-08-09T04:42:49.921Z,99.90
2022-08-09T04:48:00.893Z,99.90
2022-08-09T04:53:13.141Z,99.90
2022-08-09T04:58:17.137Z,99.90
2022-08-09T05:03:41.227Z,99.90
2022-08-09T05:08:43.900Z,99.90
2022-08-09T05:13:51.128Z,99.90
2022-08-09T05:18:59.900Z,99.90
2022-08-09T05:24:04.848Z,99.90
2022-08-09T05:29:17.705Z,99.90
2022-08-09T05:34:30.169Z,99.90
2022-08-09T05:39:35.738Z,99.90
2022-08-09T05:44:40.742Z,99.90
2022-08-09T05:50:29.862Z,99.90
2022-08-09T05:55:20.450Z,99.90
2022-08-09T06:00:23.887Z,99.90
2022-08-09T06:05:50.653Z,99.90
2022-08-09T06:10:49.756Z,99.90
2022-08-09T06:15:55.446Z,99.90
2022-08-09T06:20:59.618Z,99.90
2022-08-09T06:26:03.573Z,99.90
2022-08-09T06:31:07.201Z,99.90
2022-08-09T06:36:11.880Z,99.90
2022-08-09T06:41:19.142Z,99.90
2022-08-09T06:46:39.909Z,99.90
2022-08-09T06:51:45.879Z,99.90
2022-08-09T06:56:48.790Z,99.90
2022-08-09T07:01:57.911Z,99.90
2022-08-09T07:07:07.376Z,99.90
2022-08-09T07:12:18.218Z,99.90
2022-08-09T07:17:21.635Z,99.90
2022-08-09T07:22:34.649Z,99.90
2022-08-09T07:27:43.174Z,99.90
2022-08-09T07:32:57.313Z,99.90
2022-08-09T07:38:00.814Z,99.90
2022-08-09T07:43:04.066Z,99.90
2022-08-09T07:48:25.851Z,99.90
2022-08-09T07:54:04.402Z,99.90
2022-08-09T07:58:59.269Z,99.90
2022-08-09T08:04:02.513Z,99.90
2022-08-09T08:09:18.231Z,99.90
2022-08-09T08:14:28.956Z,99.90
2022-08-09T08:19:31.778Z,99.90
2022-08-09T08:55:24.576Z,99.90
2022-08-09T09:00:30.152Z,99.90
2022-08-09T09:06:00.875Z,99.90
2022-08-09T09:11:01.634Z,99.90
2022-08-09T09:16:04.848Z,99.90
2022-08-09T09:21:11.257Z,99.90
2022-08-09T09:26:15.730Z,99.90
2022-08-09T09:32:03.491Z,99.90
2022-08-09T13:17:44.183Z,97.00
2022-08-09T13:23:00.993Z,97.20
2022-08-09T13:28:07.270Z,95.70
2022-08-09T13:33:11.841Z,94.50
2022-08-09T13:38:55.886Z,96.50
2022-08-09T13:43:43.486Z,95.50
2022-08-09T13:48:46.695Z,95.00
2022-08-09T13:53:51.788Z,95.60
2022-08-09T13:58:55.199Z,94.70
2022-08-09T14:04:04.992Z,93.40
2022-08-09T14:09:09.213Z,93.90
2022-08-09T14:14:23.936Z,93.30
2022-08-09T14:19:33.506Z,93.30
2022-08-09T14:24:36.524Z,93.00
2022-08-09T14:30:35.694Z,92.80
2022-08-09T14:35:14.145Z,93.30
2022-08-09T14:40:18.956Z,91.80
2022-08-09T14:46:57.492Z,91.40
2022-08-09T14:51:05.352Z,90.90
2022-08-09T14:56:08.530Z,90.70
2022-08-09T15:01:16.502Z,90.00
2022-08-09T15:06:23.195Z,90.10
2022-08-09T15:11:29.287Z,89.90
2022-08-09T15:16:33.086Z,90.00
2022-08-09T15:21:57.380Z,90.60
2022-08-09T15:26:59.889Z,90.60
2022-08-09T15:32:04.602Z,90.30
2022-08-09T15:37:38.218Z,89.30
2022-08-09T15:42:52.367Z,89.20
2022-08-09T15:48:05.357Z,89.20
2022-08-09T15:53:32.685Z,89.90
2022-08-09T15:58:34.293Z,89.40
2022-08-09T16:03:38.580Z,88.90
2022-08-09T16:08:48.987Z,89.60
2022-08-09T16:14:04.154Z,90.60
2022-08-09T16:19:10.275Z,91.20
2022-08-09T16:24:29.965Z,92.20
2022-08-09T16:29:50.558Z,92.40
2022-08-09T16:34:58.023Z,92.20
2022-08-09T16:40:05.315Z,92.40
2022-08-09T16:45:09.994Z,93.20
2022-08-09T16:50:31.299Z,93.80
2022-08-09T16:55:58.531Z,94.20
2022-08-09T17:00:59.530Z,94.50
2022-08-09T17:06:28.444Z,95.10
2022-08-09T17:11:41.020Z,94.90
2022-08-09T17:16:45.806Z,94.10
2022-08-09T17:21:48.974Z,94.40
2022-08-09T17:26:58.878Z,94.90
2022-08-09T17:32:02.674Z,95.30
2022-08-09T17:37:05.944Z,95.00
2022-08-09T17:42:41.181Z,95.50
2022-08-09T17:47:49.889Z,96.10
2022-08-09T17:52:58.223Z,96.10
2022-08-09T17:58:04.007Z,96.70
2022-08-09T18:03:09.280Z,97.00
2022-08-09T18:08:13.671Z,97.30
2022-08-09T18:13:43.354Z,98.00
2022-08-09T18:18:42.918Z,98.50
2022-08-09T18:24:11.587Z,98.90
2022-08-09T18:30:39.171Z,99.40
2022-08-09T18:34:35.725Z,99.90
2022-08-09T18:39:39.585Z,99.90
2022-08-09T18:44:45.250Z,99.90
2022-08-09T18:49:49.088Z,99.90
2022-08-09T18:54:55.474Z,99.90
2022-08-09T19:00:03.958Z,99.90
2022-08-09T19:05:19.599Z,99.90
2022-08-09T19:10:29.565Z,99.90
2022-08-09T19:36:13.505Z,99.90
2022-08-09T19:41:32.722Z,99.90
2022-08-09T19:52:49.367Z,99.90
2022-08-09T19:57:55.316Z,99.90
2022-08-09T20:04:12.489Z,99.90
2022-08-09T20:08:25.061Z,99.90
2022-08-09T20:13:37.976Z,99.90
2022-08-09T20:19:04.147Z,99.90
2022-08-09T20:24:07.756Z,99.90
2022-08-09T20:29:18.916Z,99.90
2022-08-09T20:34:23.864Z,99.90
2022-08-09T20:40:15.115Z,99.90
2022-08-09T20:45:04.604Z,99.90
2022-08-09T20:50:15.597Z,99.90
2022-08-09T20:55:47.119Z,99.90
2022-08-09T21:01:32.816Z,99.90
2022-08-09T21:06:25.489Z,99.90
2022-08-09T21:16:57.923Z,99.90
2022-08-09T21:22:02.679Z,99.90
2022-08-09T21:27:51.372Z,99.90
2022-08-09T21:32:33.245Z,99.90
2022-08-09T21:37:40.593Z,99.90
2022-08-09T21:43:00.754Z,99.90
2022-08-09T21:48:03.700Z,99.90
2022-08-09T21:53:15.607Z,99.90
2022-08-09T23:52:09.473Z,99.90
2022-08-09T23:57:15.874Z,99.90
